Time;durP1;ratioP1;P1;durP2;ratioP2;P2;SDS_P1;SDS_P2;PMS_P1;PMS_P2;Temp;Humidity;BMP_temperature;BMP_pressure;BME280_temperature;BME280_humidity;BME280_pressure;Samples;Min_cycle;Max_cycle;Signal;HPM_P1;HPM_P2
2022/11/15 00:00:06;;;;;;;9.97;8.57;;;;;;;;;;510031;28;1497;-60
2022/11/15 00:00:21;;;;;;;9.50;8.40;;;;;;;;;;513034;28;970;-60
2022/11/15 00:00:36;;;;;;;10.07;8.77;;;;;;;;;;512852;28;1120;-60
2022/11/15 00:00:52;;;;;;;10.25;8.95;;;;;;;;;;513514;28;1096;-59
2022/11/15 00:01:18;;;;;;;10.93;8.95;;;;;;;;;;513663;28;1095;-59
2022/11/15 00:01:33;;;;;;;11.20;8.85;;;;;;;;;;513187;28;1492;-60
2022/11/15 00:01:49;;;;;;;11.63;9.18;;;;;;;;;;513102;28;1143;-59
2022/11/15 00:02:04;;;;;;;10.90;8.90;;;;;;;;;;514193;28;1142;-59
2022/11/15 00:02:19;;;;;;;9.95;8.52;;;;;;;;;;513533;28;1024;-59
2022/11/15 00:02:35;;;;;;;10.37;8.60;;;;;;;;;;514794;28;1131;-59
2022/11/15 00:02:52;;;;;;;10.20;8.33;;;;;;;;;;512837;28;1071;-60
2022/11/15 00:03:07;;;;;;;9.80;8.40;;;;;;;;;;513620;28;1307;-60
2022/11/15 00:03:24;;;;;;;9.77;8.73;;;;;;;;;;514200;28;1182;-60
2022/11/15 00:03:40;;;;;;;10.35;8.80;;;;;;;;;;511636;28;1117;-60
2022/11/15 00:03:55;;;;;;;11.17;8.80;;;;;;;;;;512471;28;1304;-60
2022/11/15 00:04:10;;;;;;;11.15;8.88;;;;;;;;;;509724;28;1934;-60
2022/11/15 00:04:25;;;;;;;10.60;8.60;;;;;;;;;;511690;28;1194;-59
2022/11/15 00:04:41;;;;;;;10.00;8.33;;;;;;;;;;509883;28;1452;-59
2022/11/15 00:04:56;;;;;;;10.10;8.80;;;;;;;;;;508015;28;1363;-59
2022/11/15 00:05:11;;;;;;;10.73;9.05;;;;;;;;;;509258;29;1404;-60
2022/11/15 00:05:27;;;;;;;10.73;9.10;;;;;;;;;;507718;29;1065;-59
2022/11/15 00:05:43;;;;;;;11.87;9.07;;;;;;;;;;509214;29;1604;-59
2022/11/15 00:06:05;;;;;;;11.02;8.40;;;;;;;;;;509144;29;1391;-60
2022/11/15 00:06:20;;;;;;;9.02;7.90;;;;;;;;;;508280;29;1112;-59
2022/11/15 00:06:35;;;;;;;10.57;8.10;;;;;;;;;;510144;28;1441;-59
2022/11/15 00:06:51;;;;;;;10.97;8.17;;;;;;;;;;509500;28;1224;-60
2022/11/15 00:07:06;;;;;;;10.60;8.18;;;;;;;;;;511192;28;1412;-59
2022/11/15 00:07:21;;;;;;;10.47;8.07;;;;;;;;;;510592;28;1147;-59
2022/11/15 00:07:36;;;;;;;9.83;8.10;;;;;;;;;;510266;28;1048;-59
2022/11/15 00:07:52;;;;;;;9.37;8.23;;;;;;;;;;511314;28;1080;-59
2022/11/15 00:08:08;;;;;;;9.02;7.82;;;;;;;;;;510119;28;1252;-59
2022/11/15 00:08:23;;;;;;;9.30;7.83;;;;;;;;;;511118;28;1202;-60
2022/11/15 00:08:38;;;;;;;9.83;8.20;;;;;;;;;;509820;28;1166;-60
2022/11/15 00:08:53;;;;;;;9.87;8.60;;;;;;;;;;512918;28;1099;-59
2022/11/15 00:09:09;;;;;;;10.40;8.77;;;;;;;;;;509419;28;1204;-60
2022/11/15 00:09:24;;;;;;;12.52;8.68;;;;;;;;;;511977;28;1198;-59
2022/11/15 00:09:39;;;;;;;12.50;8.73;;;;;;;;;;511141;28;1159;-59
2022/11/15 00:09:55;;;;;;;12.17;9.13;;;;;;;;;;510970;28;1242;-60
2022/11/15 00:10:11;;;;;;;12.40;9.38;;;;;;;;;;513109;28;1052;-60
2022/11/15 00:10:27;;;;;;;11.45;9.07;;;;;;;;;;512226;28;1165;-59
2022/11/15 00:10:42;;;;;;;11.52;9.02;;;;;;;;;;512842;28;1399;-59
2022/11/15 00:10:59;;;;;;;11.17;9.13;;;;;;;;;;513950;28;1184;-60
2022/11/15 00:11:15;;;;;;;9.65;8.65;;;;;;;;;;513817;28;1155;-59
2022/11/15 00:11:30;;;;;;;10.02;8.45;;;;;;;;;;512515;28;1914;-59
2022/11/15 00:11:45;;;;;;;11.10;8.70;;;;;;;;;;512854;28;1193;-59
2022/11/15 00:12:01;;;;;;;10.93;8.70;;;;;;;;;;514125;28;1324;-59
2022/11/15 00:12:16;;;;;;;10.90;8.50;;;;;;;;;;509748;28;1465;-60
2022/11/15 00:12:31;;;;;;;10.07;8.20;;;;;;;;;;511382;28;1246;-60
2022/11/15 00:12:46;;;;;;;9.93;8.40;;;;;;;;;;513295;28;1199;-59
2022/11/15 00:13:09;;;;;;;10.07;8.30;;;;;;;;;;512175;28;1214;-59
2022/11/15 00:13:25;;;;;;;10.07;8.15;;;;;;;;;;510079;28;1000;-59
2022/11/15 00:13:41;;;;;;;10.55;8.75;;;;;;;;;;511688;28;1143;-59
2022/11/15 00:13:57;;;;;;;11.02;8.38;;;;;;;;;;511883;28;1432;-59
2022/11/15 00:14:12;;;;;;;10.50;8.32;;;;;;;;;;508237;28;1285;-60
2022/11/15 00:14:28;;;;;;;10.73;8.90;;;;;;;;;;511222;28;1324;-59
2022/11/15 00:14:43;;;;;;;11.13;8.65;;;;;;;;;;511053;28;1123;-60
2022/11/15 00:14:58;;;;;;;10.40;8.10;;;;;;;;;;512077;28;1413;-59
2022/11/15 00:15:13;;;;;;;9.80;8.07;;;;;;;;;;512661;28;1147;-60
2022/11/15 00:15:29;;;;;;;9.70;8.13;;;;;;;;;;510507;28;1159;-59
2022/11/15 00:15:44;;;;;;;9.63;8.03;;;;;;;;;;513173;28;1089;-59
2022/11/15 00:16:01;;;;;;;10.27;8.47;;;;;;;;;;510955;28;1225;-59
2022/11/15 00:16:16;;;;;;;10.70;8.52;;;;;;;;;;510856;28;1080;-59
2022/11/15 00:16:31;;;;;;;10.97;8.67;;;;;;;;;;509108;28;1779;-59
2022/11/15 00:16:47;;;;;;;11.25;9.00;;;;;;;;;;509875;28;1230;-60
2022/11/15 00:17:02;;;;;;;10.77;8.70;;;;;;;;;;510465;28;1103;-59
2022/11/15 00:17:17;;;;;;;10.33;8.40;;;;;;;;;;510033;28;1120;-59
2022/11/15 00:17:33;;;;;;;10.10;8.43;;;;;;;;;;511289;28;1232;-59
2022/11/15 00:17:49;;;;;;;10.53;8.70;;;;;;;;;;509346;28;1160;-60
2022/11/15 00:18:05;;;;;;;10.82;8.70;;;;;;;;;;509523;28;1434;-59
2022/11/15 00:18:20;;;;;;;10.63;8.60;;;;;;;;;;512440;28;1533;-59
2022/11/15 00:18:37;;;;;;;10.37;8.73;;;;;;;;;;513150;28;1099;-59
2022/11/15 00:18:52;;;;;;;11.43;8.70;;;;;;;;;;511973;28;1171;-59
2022/11/15 00:19:08;;;;;;;10.55;8.30;;;;;;;;;;511638;28;1586;-60
2022/11/15 00:19:23;;;;;;;9.57;8.17;;;;;;;;;;512889;28;1250;-59
2022/11/15 00:19:38;;;;;;;10.03;8.40;;;;;;;;;;513073;28;1136;-59
2022/11/15 00:19:53;;;;;;;9.27;8.10;;;;;;;;;;511592;28;1295;-61
2022/11/15 00:20:09;;;;;;;9.52;7.93;;;;;;;;;;513705;28;1159;-59
2022/11/15 00:20:24;;;;;;;10.70;8.00;;;;;;;;;;513635;28;988;-59
2022/11/15 00:20:40;;;;;;;10.95;8.30;;;;;;;;;;515326;28;1114;-60
2022/11/15 00:20:56;;;;;;;10.63;8.53;;;;;;;;;;515773;28;1067;-59
2022/11/15 00:21:13;;;;;;;10.10;8.30;;;;;;;;;;513272;28;1376;-59
2022/11/15 00:21:28;;;;;;;9.75;8.20;;;;;;;;;;514095;28;1133;-60
2022/11/15 00:21:43;;;;;;;10.63;8.53;;;;;;;;;;511177;28;1221;-60
2022/11/15 00:21:58;;;;;;;10.23;8.65;;;;;;;;;;513470;28;1108;-59
2022/11/15 00:22:14;;;;;;;9.40;8.30;;;;;;;;;;511072;28;1192;-59
2022/11/15 00:22:33;;;;;;;10.10;8.03;;;;;;;;;;513392;28;1203;-59
2022/11/15 00:22:48;;;;;;;9.73;7.90;;;;;;;;;;512923;28;1364;-59
2022/11/15 00:23:04;;;;;;;9.53;8.13;;;;;;;;;;511890;28;1128;-59
2022/11/15 00:23:20;;;;;;;10.10;8.30;;;;;;;;;;513338;28;1252;-59
2022/11/15 00:23:35;;;;;;;10.53;8.53;;;;;;;;;;512963;28;1239;-59
2022/11/15 00:23:50;;;;;;;10.98;8.98;;;;;;;;;;512290;28;1144;-59
2022/11/15 00:24:06;;;;;;;10.37;8.67;;;;;;;;;;512792;28;1135;-60
2022/11/15 00:24:21;;;;;;;9.97;8.40;;;;;;;;;;512641;28;1012;-59
2022/11/15 00:24:36;;;;;;;9.85;8.45;;;;;;;;;;513386;28;1170;-59
2022/11/15 00:24:52;;;;;;;10.23;8.40;;;;;;;;;;514107;28;1185;-59
2022/11/15 00:25:07;;;;;;;10.27;8.43;;;;;;;;;;511446;28;1150;-60
2022/11/15 00:25:23;;;;;;;9.27;8.00;;;;;;;;;;511437;28;1274;-59
2022/11/15 00:25:38;;;;;;;10.43;8.37;;;;;;;;;;513010;28;1773;-59
2022/11/15 00:25:57;;;;;;;12.32;9.30;;;;;;;;;;513178;28;1143;-59
2022/11/15 00:26:14;;;;;;;12.82;9.35;;;;;;;;;;511263;28;1396;-60
2022/11/15 00:26:29;;;;;;;12.60;9.15;;;;;;;;;;511414;28;1295;-60
2022/11/15 00:26:45;;;;;;;12.23;8.83;;;;;;;;;;510742;28;1103;-59
2022/11/15 00:27:00;;;;;;;12.57;8.95;;;;;;;;;;511007;28;1128;-59
2022/11/15 00:27:15;;;;;;;12.10;8.97;;;;;;;;;;508141;28;1111;-60
2022/11/15 00:27:31;;;;;;;12.20;8.83;;;;;;;;;;509455;28;1383;-60
2022/11/15 00:27:46;;;;;;;11.90;8.73;;;;;;;;;;513064;28;1067;-60
2022/11/15 00:28:02;;;;;;;11.32;8.77;;;;;;;;;;512188;28;1183;-59
2022/11/15 00:28:17;;;;;;;11.57;8.95;;;;;;;;;;512454;28;1167;-59
2022/11/15 00:28:32;;;;;;;12.43;9.10;;;;;;;;;;510385;28;1764;-60
2022/11/15 00:28:48;;;;;;;13.67;9.10;;;;;;;;;;513172;28;1417;-59
2022/11/15 00:29:03;;;;;;;12.87;9.13;;;;;;;;;;512334;28;1139;-59
2022/11/15 00:29:18;;;;;;;10.75;8.80;;;;;;;;;;514445;28;1089;-59
2022/11/15 00:29:33;;;;;;;10.37;8.47;;;;;;;;;;515409;28;1154;-59
2022/11/15 00:29:49;;;;;;;10.63;8.43;;;;;;;;;;512389;28;1197;-60
2022/11/15 00:30:04;;;;;;;10.23;8.30;;;;;;;;;;514594;28;1068;-59
2022/11/15 00:30:20;;;;;;;9.75;8.13;;;;;;;;;;512963;28;1406;-59
2022/11/15 00:30:35;;;;;;;9.93;8.10;;;;;;;;;;512803;28;1234;-59
2022/11/15 00:30:51;;;;;;;11.73;8.57;;;;;;;;;;512955;28;1195;-60
2022/11/15 00:31:11;;;;;;;12.02;8.73;;;;;;;;;;510474;28;1271;-60
2022/11/15 00:31:26;;;;;;;10.95;9.02;;;;;;;;;;513688;28;1969;-59
2022/11/15 00:31:41;;;;;;;11.13;8.70;;;;;;;;;;511898;28;1372;-60
2022/11/15 00:31:56;;;;;;;11.37;8.50;;;;;;;;;;511775;28;1312;-60
2022/11/15 00:32:12;;;;;;;11.77;8.97;;;;;;;;;;510625;28;1297;-59
2022/11/15 00:32:31;;;;;;;11.40;8.85;;;;;;;;;;511238;28;1108;-59
2022/11/15 00:32:46;;;;;;;11.88;8.93;;;;;;;;;;509700;28;1028;-59
2022/11/15 00:33:05;;;;;;;11.30;8.97;;;;;;;;;;509398;28;1093;-59
2022/11/15 00:33:21;;;;;;;10.95;8.70;;;;;;;;;;511280;28;1136;-59
2022/11/15 00:33:36;;;;;;;11.35;8.90;;;;;;;;;;510967;28;1139;-59
2022/11/15 00:33:51;;;;;;;12.30;8.97;;;;;;;;;;512433;28;1172;-59
2022/11/15 00:34:06;;;;;;;12.33;8.93;;;;;;;;;;512524;28;1237;-59
2022/11/15 00:34:22;;;;;;;12.20;9.03;;;;;;;;;;515272;28;1182;-59
2022/11/15 00:34:37;;;;;;;11.52;9.07;;;;;;;;;;513635;28;1485;-59
2022/11/15 00:34:52;;;;;;;11.27;9.10;;;;;;;;;;512228;28;1142;-60
2022/11/15 00:35:08;;;;;;;11.83;9.23;;;;;;;;;;513074;28;1202;-60
2022/11/15 00:35:23;;;;;;;11.75;8.82;;;;;;;;;;513686;28;1218;-59
2022/11/15 00:35:38;;;;;;;11.63;8.80;;;;;;;;;;515039;28;1079;-59
2022/11/15 00:36:06;;;;;;;12.70;9.23;;;;;;;;;;511509;28;1187;-60
2022/11/15 00:36:21;;;;;;;11.82;8.98;;;;;;;;;;510065;28;1220;-59
2022/11/15 00:36:37;;;;;;;12.70;8.93;;;;;;;;;;510722;28;1158;-59
2022/11/15 00:36:52;;;;;;;12.50;8.80;;;;;;;;;;508852;28;1485;-60
2022/11/15 00:37:07;;;;;;;12.13;9.13;;;;;;;;;;510694;28;1330;-59
2022/11/15 00:37:22;;;;;;;12.33;9.20;;;;;;;;;;508360;28;1305;-59
2022/11/15 00:37:38;;;;;;;11.68;8.93;;;;;;;;;;506081;29;1235;-60
2022/11/15 00:37:53;;;;;;;13.20;9.03;;;;;;;;;;506953;29;1262;-59
2022/11/15 00:38:08;;;;;;;12.30;9.00;;;;;;;;;;506992;28;1218;-60
2022/11/15 00:38:23;;;;;;;12.23;9.00;;;;;;;;;;508114;28;1038;-59
2022/11/15 00:38:40;;;;;;;13.27;9.10;;;;;;;;;;510845;28;1330;-60
2022/11/15 00:38:55;;;;;;;11.85;8.80;;;;;;;;;;510399;28;1243;-59
2022/11/15 00:39:10;;;;;;;10.93;8.77;;;;;;;;;;510910;28;1124;-59
2022/11/15 00:39:25;;;;;;;12.07;8.95;;;;;;;;;;510597;28;1258;-60
2022/11/15 00:39:41;;;;;;;13.57;8.87;;;;;;;;;;512977;28;1091;-59
2022/11/15 00:39:56;;;;;;;13.33;9.03;;;;;;;;;;511604;28;1192;-60
2022/11/15 00:40:12;;;;;;;11.63;8.93;;;;;;;;;;513037;28;1203;-59
2022/11/15 00:40:28;;;;;;;11.32;8.75;;;;;;;;;;512626;28;1218;-59
2022/11/15 00:40:43;;;;;;;12.53;9.33;;;;;;;;;;514548;28;1083;-60
2022/11/15 00:40:59;;;;;;;11.53;9.17;;;;;;;;;;515190;28;1111;-60
2022/11/15 00:41:14;;;;;;;11.40;8.80;;;;;;;;;;511569;28;1974;-59
2022/11/15 00:41:30;;;;;;;12.13;9.07;;;;;;;;;;512258;28;1193;-59
2022/11/15 00:41:45;;;;;;;11.00;8.90;;;;;;;;;;512774;28;1187;-60
2022/11/15 00:42:01;;;;;;;11.27;8.68;;;;;;;;;;512993;28;1021;-59
2022/11/15 00:42:16;;;;;;;11.87;8.87;;;;;;;;;;510990;28;1230;-59
2022/11/15 00:42:31;;;;;;;11.43;9.03;;;;;;;;;;510417;28;1289;-59
2022/11/15 00:42:46;;;;;;;11.65;9.05;;;;;;;;;;509397;28;1424;-59
2022/11/15 00:43:02;;;;;;;11.13;8.57;;;;;;;;;;506740;28;1222;-60
2022/11/15 00:43:17;;;;;;;10.77;8.33;;;;;;;;;;505805;29;1031;-60
2022/11/15 00:43:34;;;;;;;11.67;8.87;;;;;;;;;;506446;29;1441;-60
2022/11/15 00:43:49;;;;;;;12.05;8.90;;;;;;;;;;507602;29;1357;-59
2022/11/15 00:44:04;;;;;;;11.90;8.60;;;;;;;;;;506923;29;1128;-59
2022/11/15 00:44:19;;;;;;;12.40;8.75;;;;;;;;;;505972;29;1481;-59
2022/11/15 00:44:35;;;;;;;11.40;8.60;;;;;;;;;;507844;28;1100;-59
2022/11/15 00:44:50;;;;;;;11.50;8.67;;;;;;;;;;508989;28;1659;-59
2022/11/15 00:45:06;;;;;;;13.25;9.02;;;;;;;;;;511325;28;1199;-59
2022/11/15 00:45:21;;;;;;;14.00;9.30;;;;;;;;;;512670;28;1049;-60
2022/11/15 00:45:36;;;;;;;12.90;9.23;;;;;;;;;;509767;28;1195;-60
2022/11/15 00:45:52;;;;;;;11.83;9.03;;;;;;;;;;509717;28;1186;-59
2022/11/15 00:46:09;;;;;;;12.97;9.13;;;;;;;;;;511833;28;1132;-59
2022/11/15 00:46:25;;;;;;;12.65;9.10;;;;;;;;;;511012;28;1313;-59
2022/11/15 00:46:40;;;;;;;12.70;9.43;;;;;;;;;;509051;28;1567;-60
2022/11/15 00:46:55;;;;;;;12.47;9.43;;;;;;;;;;512758;28;1986;-60
2022/11/15 00:47:11;;;;;;;11.50;9.13;;;;;;;;;;512935;28;1200;-60
2022/11/15 00:47:26;;;;;;;11.97;9.20;;;;;;;;;;512470;28;1176;-59
2022/11/15 00:47:45;;;;;;;12.45;9.40;;;;;;;;;;512447;28;1338;-59
2022/11/15 00:48:00;;;;;;;12.02;9.45;;;;;;;;;;509816;28;1057;-59
2022/11/15 00:48:15;;;;;;;11.20;9.07;;;;;;;;;;511834;28;1210;-60
2022/11/15 00:48:31;;;;;;;11.73;9.10;;;;;;;;;;511156;28;1272;-59
2022/11/15 00:48:46;;;;;;;13.35;9.50;;;;;;;;;;509961;28;1415;-59
2022/11/15 00:49:02;;;;;;;13.63;9.40;;;;;;;;;;508790;28;1038;-59
2022/11/15 00:49:17;;;;;;;12.98;9.23;;;;;;;;;;510852;28;1217;-59
2022/11/15 00:49:32;;;;;;;12.53;9.00;;;;;;;;;;511581;28;1120;-59
2022/11/15 00:49:47;;;;;;;12.80;8.70;;;;;;;;;;513223;28;1373;-60
2022/11/15 00:50:04;;;;;;;13.43;9.00;;;;;;;;;;512375;28;1203;-59
2022/11/15 00:50:19;;;;;;;12.77;9.40;;;;;;;;;;511886;28;1025;-59
2022/11/15 00:50:34;;;;;;;12.30;9.43;;;;;;;;;;514573;28;1344;-60
2022/11/15 00:50:50;;;;;;;12.67;9.47;;;;;;;;;;514842;28;1482;-59
2022/11/15 00:51:05;;;;;;;12.43;9.02;;;;;;;;;;514984;28;1136;-59
2022/11/15 00:51:21;;;;;;;12.40;8.93;;;;;;;;;;513586;28;1918;-59
2022/11/15 00:51:36;;;;;;;12.68;9.45;;;;;;;;;;514714;28;961;-59
2022/11/15 00:51:52;;;;;;;11.90;9.40;;;;;;;;;;514962;28;1084;-60
2022/11/15 00:52:07;;;;;;;11.55;8.95;;;;;;;;;;514918;28;1119;-60
2022/11/15 00:52:22;;;;;;;12.13;8.90;;;;;;;;;;513733;28;1045;-60
2022/11/15 00:52:37;;;;;;;13.17;9.20;;;;;;;;;;515142;28;968;-59
2022/11/15 00:52:53;;;;;;;13.43;9.38;;;;;;;;;;514592;28;1201;-60
2022/11/15 00:53:08;;;;;;;13.13;9.30;;;;;;;;;;515422;28;1122;-59
2022/11/15 00:53:24;;;;;;;12.60;9.17;;;;;;;;;;515106;28;1052;-59
2022/11/15 00:53:39;;;;;;;11.77;9.00;;;;;;;;;;513470;28;1117;-59
2022/11/15 00:53:54;;;;;;;12.47;9.13;;;;;;;;;;514365;28;1291;-59
2022/11/15 00:54:09;;;;;;;13.30;9.40;;;;;;;;;;513995;28;1285;-59
2022/11/15 00:54:25;;;;;;;12.52;9.13;;;;;;;;;;514804;28;1075;-60
2022/11/15 00:54:40;;;;;;;12.93;9.33;;;;;;;;;;514974;28;1180;-60
2022/11/15 00:54:55;;;;;;;13.13;9.53;;;;;;;;;;512424;28;1365;-60
2022/11/15 00:55:16;;;;;;;11.83;9.33;;;;;;;;;;513272;28;1162;-59
2022/11/15 00:55:31;;;;;;;12.48;9.40;;;;;;;;;;511682;28;1226;-59
2022/11/15 00:55:46;;;;;;;12.00;9.20;;;;;;;;;;512463;28;1151;-59
2022/11/15 00:56:02;;;;;;;11.17;9.00;;;;;;;;;;513230;28;1491;-59
2022/11/15 00:56:17;;;;;;;11.32;9.10;;;;;;;;;;511479;28;1132;-59
2022/11/15 00:56:32;;;;;;;11.83;9.30;;;;;;;;;;510861;28;1166;-59
2022/11/15 00:56:48;;;;;;;11.48;9.02;;;;;;;;;;509594;28;1112;-60
2022/11/15 00:57:03;;;;;;;11.17;9.07;;;;;;;;;;508435;29;1464;-60
2022/11/15 00:57:19;;;;;;;12.02;9.50;;;;;;;;;;508192;28;1467;-59
2022/11/15 00:57:34;;;;;;;11.67;9.27;;;;;;;;;;505614;29;1287;-60
2022/11/15 00:57:49;;;;;;;11.37;9.03;;;;;;;;;;507055;29;1192;-59
2022/11/15 00:58:05;;;;;;;11.32;8.98;;;;;;;;;;505974;29;1292;-59
2022/11/15 00:58:20;;;;;;;11.20;8.97;;;;;;;;;;507219;28;1112;-59
2022/11/15 00:58:35;;;;;;;11.97;8.70;;;;;;;;;;510424;28;1215;-59
2022/11/15 00:58:50;;;;;;;13.13;8.77;;;;;;;;;;510343;28;1215;-60
2022/11/15 00:59:06;;;;;;;13.15;9.00;;;;;;;;;;512533;28;1230;-59
2022/11/15 00:59:21;;;;;;;11.63;8.97;;;;;;;;;;513430;28;1034;-59
2022/11/15 00:59:36;;;;;;;10.93;8.80;;;;;;;;;;513548;28;1215;-59
2022/11/15 00:59:51;;;;;;;12.27;8.82;;;;;;;;;;509845;28;1292;-59
2022/11/15 01:00:07;;;;;;;13.10;9.10;;;;;;;;;;510010;28;1096;-60
2022/11/15 01:00:23;;;;;;;11.52;8.95;;;;;;;;;;509230;28;1227;-59
2022/11/15 01:00:38;;;;;;;11.17;9.07;;;;;;;;;;511023;28;1319;-59
2022/11/15 01:00:54;;;;;;;11.73;9.30;;;;;;;;;;511853;28;1172;-59
2022/11/15 01:01:12;;;;;;;11.95;9.30;;;;;;;;;;511098;28;1120;-59
2022/11/15 01:01:27;;;;;;;11.60;9.18;;;;;;;;;;512883;28;1041;-59
2022/11/15 01:01:42;;;;;;;12.00;9.30;;;;;;;;;;512676;28;2243;-59
2022/11/15 01:01:57;;;;;;;12.85;9.63;;;;;;;;;;513228;28;1306;-60
2022/11/15 01:02:13;;;;;;;12.43;9.33;;;;;;;;;;512860;28;1112;-59
2022/11/15 01:02:28;;;;;;;11.33;8.93;;;;;;;;;;513182;28;1218;-60
2022/11/15 01:02:43;;;;;;;11.07;8.80;;;;;;;;;;511021;28;1117;-59
2022/11/15 01:03:01;;;;;;;11.10;8.40;;;;;;;;;;510836;28;1084;-59
2022/11/15 01:03:16;;;;;;;11.57;8.48;;;;;;;;;;511095;28;1056;-59
2022/11/15 01:03:33;;;;;;;10.80;8.70;;;;;;;;;;509916;28;1096;-59
2022/11/15 01:03:48;;;;;;;10.68;8.70;;;;;;;;;;508830;28;1287;-59
2022/11/15 01:04:03;;;;;;;11.13;8.82;;;;;;;;;;510887;28;1147;-59
2022/11/15 01:04:19;;;;;;;10.97;8.77;;;;;;;;;;509636;28;1084;-59
2022/11/15 01:04:34;;;;;;;10.80;8.90;;;;;;;;;;510356;28;1231;-59
2022/11/15 01:04:49;;;;;;;12.13;9.05;;;;;;;;;;511955;28;1170;-60
2022/11/15 01:05:05;;;;;;;12.87;8.97;;;;;;;;;;510649;28;1296;-59
2022/11/15 01:05:21;;;;;;;11.98;8.90;;;;;;;;;;510608;28;1342;-60
2022/11/15 01:05:37;;;;;;;11.88;9.07;;;;;;;;;;511188;28;1151;-60
2022/11/15 01:05:52;;;;;;;11.25;8.90;;;;;;;;;;512649;28;1148;-59
2022/11/15 01:06:09;;;;;;;11.43;8.67;;;;;;;;;;509568;28;1440;-60
2022/11/15 01:06:24;;;;;;;12.00;9.00;;;;;;;;;;510584;28;1179;-60
2022/11/15 01:06:39;;;;;;;11.20;9.07;;;;;;;;;;511079;28;1073;-59
2022/11/15 01:06:54;;;;;;;11.87;9.37;;;;;;;;;;510197;28;1209;-60
2022/11/15 01:07:10;;;;;;;12.20;9.20;;;;;;;;;;512555;28;1163;-59
2022/11/15 01:07:25;;;;;;;12.20;9.02;;;;;;;;;;511088;28;1190;-59
2022/11/15 01:07:40;;;;;;;11.83;9.13;;;;;;;;;;511135;28;1205;-59
2022/11/15 01:07:56;;;;;;;11.53;8.67;;;;;;;;;;509597;28;1187;-60
2022/11/15 01:08:15;;;;;;;11.75;8.55;;;;;;;;;;512303;28;1156;-59
2022/11/15 01:08:31;;;;;;;12.00;8.73;;;;;;;;;;512525;28;1094;-59
2022/11/15 01:08:46;;;;;;;11.88;8.65;;;;;;;;;;511589;28;1151;-59
2022/11/15 01:09:02;;;;;;;11.93;8.93;;;;;;;;;;512369;28;1215;-59
2022/11/15 01:09:18;;;;;;;10.98;9.02;;;;;;;;;;513160;28;1195;-59
2022/11/15 01:09:33;;;;;;;11.00;9.10;;;;;;;;;;512680;28;1174;-59
2022/11/15 01:09:48;;;;;;;11.20;9.13;;;;;;;;;;513240;28;1156;-59
2022/11/15 01:10:04;;;;;;;11.60;8.90;;;;;;;;;;515625;28;1126;-59
2022/11/15 01:10:20;;;;;;;11.38;9.10;;;;;;;;;;512429;28;1268;-59
2022/11/15 01:10:36;;;;;;;11.20;9.20;;;;;;;;;;512993;28;1220;-59
2022/11/15 01:10:52;;;;;;;11.57;8.95;;;;;;;;;;511808;28;1212;-59
2022/11/15 01:11:10;;;;;;;10.82;8.65;;;;;;;;;;512844;28;1202;-59
2022/11/15 01:11:26;;;;;;;10.80;8.95;;;;;;;;;;512986;28;1919;-59
2022/11/15 01:11:41;;;;;;;10.98;8.90;;;;;;;;;;512465;28;1123;-60
2022/11/15 01:11:56;;;;;;;12.23;9.20;;;;;;;;;;512697;28;1257;-60
2022/11/15 01:12:11;;;;;;;13.17;9.30;;;;;;;;;;512046;28;1060;-60
2022/11/15 01:12:27;;;;;;;13.23;9.25;;;;;;;;;;511369;28;1160;-60
2022/11/15 01:12:42;;;;;;;13.33;9.10;;;;;;;;;;513267;28;1251;-60
2022/11/15 01:12:57;;;;;;;11.80;8.70;;;;;;;;;;511196;28;1064;-60
2022/11/15 01:13:13;;;;;;;10.93;8.90;;;;;;;;;;513241;28;1083;-59
2022/11/15 01:13:35;;;;;;;11.17;9.00;;;;;;;;;;513302;28;1206;-59
2022/11/15 01:13:50;;;;;;;12.15;9.32;;;;;;;;;;512049;28;1688;-59
2022/11/15 01:14:06;;;;;;;11.35;8.88;;;;;;;;;;512374;28;1765;-60
2022/11/15 01:14:21;;;;;;;10.53;8.57;;;;;;;;;;511141;28;1575;-59
2022/11/15 01:14:37;;;;;;;11.38;8.75;;;;;;;;;;510561;28;1411;-59
2022/11/15 01:14:52;;;;;;;12.57;9.00;;;;;;;;;;509949;28;1263;-59
2022/11/15 01:15:07;;;;;;;12.40;9.17;;;;;;;;;;509366;28;1177;-59
2022/11/15 01:15:23;;;;;;;10.98;8.82;;;;;;;;;;510953;28;1281;-60
2022/11/15 01:15:40;;;;;;;11.47;8.80;;;;;;;;;;510963;28;1225;-59
2022/11/15 01:15:55;;;;;;;11.32;8.60;;;;;;;;;;510702;28;1172;-59
2022/11/15 01:16:17;;;;;;;10.03;8.23;;;;;;;;;;508921;28;1034;-60
2022/11/15 01:16:33;;;;;;;11.30;8.65;;;;;;;;;;511549;28;1132;-59
2022/11/15 01:16:48;;;;;;;12.30;9.20;;;;;;;;;;510114;28;1155;-60
2022/11/15 01:17:03;;;;;;;11.83;9.27;;;;;;;;;;513790;28;1440;-59
2022/11/15 01:17:18;;;;;;;11.30;9.00;;;;;;;;;;513267;28;1152;-59
2022/11/15 01:17:34;;;;;;;12.97;8.97;;;;;;;;;;514879;28;1052;-59
2022/11/15 01:17:49;;;;;;;13.43;9.10;;;;;;;;;;514549;28;1193;-59
2022/11/15 01:18:04;;;;;;;12.40;9.10;;;;;;;;;;512828;28;1053;-59
2022/11/15 01:18:20;;;;;;;11.55;8.95;;;;;;;;;;514910;28;1223;-59
2022/11/15 01:18:35;;;;;;;11.20;8.57;;;;;;;;;;514161;28;1327;-60
2022/11/15 01:18:50;;;;;;;12.05;9.02;;;;;;;;;;512876;28;1100;-59
2022/11/15 01:19:06;;;;;;;11.87;9.40;;;;;;;;;;511722;28;1173;-60
2022/11/15 01:19:21;;;;;;;13.20;9.30;;;;;;;;;;512386;28;1176;-60
2022/11/15 01:19:37;;;;;;;13.32;8.90;;;;;;;;;;512002;28;1139;-59
2022/11/15 01:19:52;;;;;;;11.67;8.73;;;;;;;;;;512839;28;1506;-59
2022/11/15 01:20:08;;;;;;;12.13;9.10;;;;;;;;;;512590;28;1028;-60
2022/11/15 01:20:23;;;;;;;12.73;9.40;;;;;;;;;;511672;28;1156;-59
2022/11/15 01:20:41;;;;;;;13.43;9.60;;;;;;;;;;512623;28;1171;-60
2022/11/15 01:20:56;;;;;;;12.80;9.52;;;;;;;;;;512963;28;1367;-59
2022/11/15 01:21:15;;;;;;;13.13;9.30;;;;;;;;;;510804;28;1181;-59
2022/11/15 01:21:31;;;;;;;12.98;9.15;;;;;;;;;;507601;29;1257;-60
2022/11/15 01:21:49;;;;;;;12.37;9.20;;;;;;;;;;506723;29;1235;-59
2022/11/15 01:22:04;;;;;;;12.05;8.93;;;;;;;;;;504998;29;1200;-60
2022/11/15 01:22:19;;;;;;;11.55;8.85;;;;;;;;;;506630;29;1363;-59
2022/11/15 01:22:35;;;;;;;10.87;8.90;;;;;;;;;;507573;28;1523;-60
2022/11/15 01:22:50;;;;;;;11.03;9.13;;;;;;;;;;508611;29;1187;-59
2022/11/15 01:23:05;;;;;;;11.67;9.63;;;;;;;;;;509293;28;1188;-59
2022/11/15 01:23:20;;;;;;;11.40;9.57;;;;;;;;;;506248;29;1341;-59
2022/11/15 01:23:36;;;;;;;11.13;9.47;;;;;;;;;;508607;28;1005;-59
2022/11/15 01:23:55;;;;;;;11.15;9.38;;;;;;;;;;509579;28;1230;-60
2022/11/15 01:24:12;;;;;;;11.93;9.70;;;;;;;;;;509798;28;1234;-60
2022/11/15 01:24:28;;;;;;;12.18;9.70;;;;;;;;;;511590;28;1289;-59
2022/11/15 01:24:43;;;;;;;12.63;9.48;;;;;;;;;;509528;28;1151;-60
2022/11/15 01:24:58;;;;;;;13.57;9.53;;;;;;;;;;508763;29;1428;-59
2022/11/15 01:25:14;;;;;;;14.00;9.60;;;;;;;;;;507106;28;1108;-59
2022/11/15 01:25:29;;;;;;;13.20;9.70;;;;;;;;;;511180;28;1230;-59
2022/11/15 01:25:44;;;;;;;12.45;9.95;;;;;;;;;;511807;28;1159;-59
2022/11/15 01:26:01;;;;;;;13.67;10.20;;;;;;;;;;509623;28;1422;-60
2022/11/15 01:26:16;;;;;;;14.73;10.15;;;;;;;;;;510698;28;1127;-60
2022/11/15 01:26:31;;;;;;;13.63;9.90;;;;;;;;;;510445;28;956;-59
2022/11/15 01:26:47;;;;;;;12.53;9.77;;;;;;;;;;511302;28;1053;-59
2022/11/15 01:27:02;;;;;;;12.50;9.52;;;;;;;;;;513188;28;1122;-60
2022/11/15 01:27:17;;;;;;;11.87;9.63;;;;;;;;;;512893;28;1206;-60
2022/11/15 01:27:33;;;;;;;12.53;10.00;;;;;;;;;;513683;28;1068;-59
2022/11/15 01:27:48;;;;;;;13.13;10.00;;;;;;;;;;515182;28;1060;-59
2022/11/15 01:28:03;;;;;;;13.50;9.90;;;;;;;;;;513386;28;1404;-60
2022/11/15 01:28:18;;;;;;;12.57;9.67;;;;;;;;;;512664;28;1139;-59
2022/11/15 01:28:36;;;;;;;11.77;9.10;;;;;;;;;;510582;28;1050;-59
2022/11/15 01:28:51;;;;;;;12.48;9.50;;;;;;;;;;514045;28;1214;-59
2022/11/15 01:29:07;;;;;;;11.90;9.70;;;;;;;;;;512736;28;1218;-59
2022/11/15 01:29:22;;;;;;;11.83;9.30;;;;;;;;;;511709;28;1337;-59
2022/11/15 01:29:37;;;;;;;12.53;9.50;;;;;;;;;;511597;28;1124;-59
2022/11/15 01:29:53;;;;;;;11.87;9.60;;;;;;;;;;511411;28;1099;-60
2022/11/15 01:30:08;;;;;;;11.63;9.50;;;;;;;;;;514694;28;1340;-59
2022/11/15 01:30:24;;;;;;;13.00;9.75;;;;;;;;;;515380;28;1217;-59
2022/11/15 01:30:39;;;;;;;13.63;9.73;;;;;;;;;;515106;28;1037;-59
2022/11/15 01:30:57;;;;;;;12.30;9.40;;;;;;;;;;511355;28;1305;-59
2022/11/15 01:31:16;;;;;;;11.63;9.15;;;;;;;;;;511957;28;1227;-59
2022/11/15 01:31:32;;;;;;;11.13;8.63;;;;;;;;;;511814;28;1910;-60
2022/11/15 01:31:47;;;;;;;11.97;9.03;;;;;;;;;;512267;28;1107;-59
2022/11/15 01:32:02;;;;;;;12.20;9.33;;;;;;;;;;512853;28;1173;-60
2022/11/15 01:32:18;;;;;;;12.65;9.65;;;;;;;;;;512461;28;1056;-59
2022/11/15 01:32:33;;;;;;;12.70;9.63;;;;;;;;;;514096;28;1215;-59
2022/11/15 01:32:48;;;;;;;11.63;9.33;;;;;;;;;;512715;28;1276;-60
2022/11/15 01:33:04;;;;;;;12.00;9.02;;;;;;;;;;511508;28;1077;-59
2022/11/15 01:33:19;;;;;;;12.00;8.80;;;;;;;;;;513110;28;1104;-60
2022/11/15 01:33:37;;;;;;;10.63;8.77;;;;;;;;;;513160;28;1131;-59
2022/11/15 01:33:53;;;;;;;11.73;9.10;;;;;;;;;;513275;28;1530;-60
2022/11/15 01:34:08;;;;;;;13.00;9.23;;;;;;;;;;514699;28;1201;-59
2022/11/15 01:34:23;;;;;;;12.40;9.10;;;;;;;;;;514787;28;1049;-59
2022/11/15 01:34:39;;;;;;;11.15;8.85;;;;;;;;;;514677;28;1035;-59
2022/11/15 01:34:54;;;;;;;12.17;9.00;;;;;;;;;;515097;28;1083;-59
2022/11/15 01:35:09;;;;;;;12.50;9.30;;;;;;;;;;513317;28;1131;-60
2022/11/15 01:35:24;;;;;;;11.90;9.50;;;;;;;;;;514526;28;968;-59
2022/11/15 01:35:40;;;;;;;12.18;9.52;;;;;;;;;;515804;28;1083;-60
2022/11/15 01:35:55;;;;;;;11.90;9.30;;;;;;;;;;515582;28;1154;-59